Ashton, Iowa
Current Conditions -  °F | °C
As of 3:15 AM on Thursday 18 Dec 2014 (Local Time) from KSHL Reporting Station
Overcast Overcast  
Wind Chill:   Ceiling: 7500
Heat Index: 18°   Visibility: 10mi
Dew Point: 16°   Wind: 8mph
Humidity: 93%   Direction: 100°E
Pressure: 30.23"   Gusts: NA
Location:  43.31°N, 95.79°W
Report Text: KSHL 180915Z AUTO 10007KT 10SM OVC075 M08/M09 A3023 RMK AO2
Loading
Personal Weather Stations






























Interactive Weather Map New forecast layout! Learn more

10-Day Weather Forecast

Advertisements
Track Severe Weather on mobile